Terminal Aerodrome Forecast
Issued by NWS Shreveport, LA

Home | Current Version | Previous Version | Text Only | Print | Product List | Glossary On
Versions: 1 2 3 4 5 6 7 8 9 10 11 12 13 14 15
714
FTUS44 KSHV 141158
TAFGGG
TAF
KGGG 141158Z 1412/1512 18008KT P6SM OVC015
      TEMPO 1413/1416 BKN008 OVC012
     FM141800 18012G18KT P6SM OVC020
     FM150000 16008KT 6SM BR VCSH OVC035
     FM150300 16011KT P6SM OVC025
     FM150900 18009KT 4SM -TSRA BR OVC007CB=

USA.gov is the U.S. government's official web portal to all federal, state and local government web resources and services.